createdAt,value
2023-04-26T00:00:09.362Z,10.82
2023-04-26T00:02:36.753Z,10.81
2023-04-26T00:05:05.438Z,10.78
2023-04-26T00:07:32.777Z,10.76
2023-04-26T00:10:00.063Z,10.74
2023-04-26T00:12:27.303Z,10.72
2023-04-26T00:14:54.461Z,10.72
2023-04-26T00:17:21.500Z,10.71
2023-04-26T00:19:48.673Z,10.69
2023-04-26T00:22:15.711Z,10.66
2023-04-26T00:24:43.706Z,10.63
2023-04-26T00:27:11.024Z,10.59
2023-04-26T00:29:38.286Z,10.57
2023-04-26T00:39:42.057Z,10.54
2023-04-26T00:42:08.957Z,10.55
2023-04-26T00:44:36.638Z,10.56
2023-04-26T00:47:03.875Z,10.55
2023-04-26T00:49:31.298Z,10.52
2023-04-26T00:51:58.376Z,10.48
2023-04-26T00:54:25.900Z,10.46
2023-04-26T00:56:53.496Z,10.47
2023-04-26T00:59:21.464Z,10.49
2023-04-26T01:01:49.410Z,10.50
2023-04-26T01:04:17.067Z,10.51
2023-04-26T01:06:47.171Z,10.51
2023-04-26T01:16:59.148Z,10.58
2023-04-26T01:19:26.296Z,10.58
2023-04-26T01:21:53.209Z,10.58
2023-04-26T01:24:21.635Z,10.60
2023-04-26T01:26:48.791Z,10.60
2023-04-26T01:29:18.176Z,10.59
2023-04-26T01:31:46.291Z,10.57
2023-04-26T01:34:13.810Z,10.56
2023-04-26T01:36:41.162Z,10.56
2023-04-26T01:39:11.289Z,10.56
2023-04-26T01:41:38.327Z,10.56
2023-04-26T01:44:05.696Z,10.55
2023-04-26T01:46:36.083Z,10.55
2023-04-26T01:49:03.258Z,10.56
2023-04-26T01:51:30.348Z,10.54
2023-04-26T01:53:57.257Z,10.52
2023-04-26T01:56:26.146Z,10.50
2023-04-26T01:58:55.661Z,10.47
2023-04-26T02:01:23.905Z,10.45
2023-04-26T02:03:53.846Z,10.44
2023-04-26T02:06:21.943Z,10.41
2023-04-26T02:08:49.796Z,10.39
2023-04-26T02:11:17.064Z,10.36
2023-04-26T02:13:44.279Z,10.35
2023-04-26T02:16:11.560Z,10.33
2023-04-26T02:18:39.210Z,10.31
2023-04-26T02:21:09.071Z,10.29
2023-04-26T02:23:36.260Z,10.26
2023-04-26T02:26:03.395Z,10.23
2023-04-26T02:28:31.687Z,10.20
2023-04-26T02:30:59.055Z,10.19
2023-04-26T02:33:26.286Z,10.19
2023-04-26T02:35:53.326Z,10.17
2023-04-26T02:38:20.903Z,10.16
2023-04-26T02:40:48.164Z,10.18
2023-04-26T02:43:16.243Z,10.17
2023-04-26T02:45:43.495Z,10.17
2023-04-26T02:48:12.084Z,10.17
2023-04-26T02:50:39.242Z,10.17
2023-04-26T02:53:06.560Z,10.13
2023-04-26T02:55:33.804Z,10.07
2023-04-26T02:58:01.044Z,10.04
2023-04-26T03:00:28.797Z,10.01
2023-04-26T03:02:57.241Z,9.96
2023-04-26T03:05:24.878Z,9.93
2023-04-26T03:07:52.823Z,9.94
2023-04-26T03:10:19.952Z,9.95
2023-04-26T03:12:47.136Z,9.93
2023-04-26T03:15:15.596Z,9.92
2023-04-26T03:17:43.477Z,9.92
2023-04-26T03:20:11.849Z,9.91
2023-04-26T03:22:39.512Z,9.90
2023-04-26T03:25:08.109Z,9.88
2023-04-26T03:27:35.236Z,9.88
2023-04-26T03:30:02.329Z,9.89
2023-04-26T03:32:30.144Z,9.89
2023-04-26T03:34:57.435Z,9.87
2023-04-26T03:37:24.872Z,9.87
2023-04-26T03:39:57.643Z,9.87
2023-04-26T03:42:24.911Z,9.88
2023-04-26T03:44:52.037Z,9.91
2023-04-26T03:47:19.095Z,9.95
2023-04-26T03:49:46.243Z,9.99
2023-04-26T03:52:13.151Z,10.01
2023-04-26T03:54:40.134Z,10.01
2023-04-26T03:57:07.310Z,10.03
2023-04-26T03:59:35.170Z,10.07
2023-04-26T04:02:02.196Z,10.09
2023-04-26T04:04:31.443Z,10.09
2023-04-26T04:06:59.659Z,10.06
2023-04-26T04:09:26.835Z,10.03
2023-04-26T04:11:57.861Z,10.01
2023-04-26T04:14:25.718Z,9.99
2023-04-26T04:16:52.865Z,9.98
2023-04-26T04:19:20.116Z,9.97
2023-04-26T04:21:47.808Z,9.96
2023-04-26T04:32:15.402Z,9.93
2023-04-26T04:34:47.723Z,9.92
2023-04-26T04:37:17.326Z,9.93
2023-04-26T04:39:47.569Z,9.92
2023-04-26T04:42:15.568Z,9.91
2023-04-26T04:44:43.146Z,9.91
2023-04-26T04:47:10.580Z,9.95
2023-04-26T04:49:38.675Z,9.99
2023-04-26T04:52:09.784Z,10.01
2023-04-26T04:54:37.023Z,9.99
2023-04-26T04:57:04.103Z,9.97
2023-04-26T04:59:33.933Z,9.98
2023-04-26T05:02:22.186Z,10.03
2023-04-26T05:04:52.629Z,10.05
2023-04-26T05:07:19.646Z,10.05
2023-04-26T05:09:46.772Z,10.06
2023-04-26T05:12:18.111Z,10.09
2023-04-26T05:15:08.146Z,10.15
2023-04-26T05:17:35.557Z,10.17
2023-04-26T05:20:12.748Z,10.16
2023-04-26T05:22:40.231Z,10.16
2023-04-26T05:25:15.228Z,10.15
2023-04-26T05:27:42.908Z,10.16
2023-04-26T05:30:21.247Z,10.18
2023-04-26T05:33:23.795Z,10.19
2023-04-26T05:35:58.622Z,10.21
2023-04-26T05:38:25.801Z,10.23
2023-04-26T05:40:53.507Z,10.23
2023-04-26T05:43:20.890Z,10.18
2023-04-26T05:45:56.302Z,10.17
2023-04-26T05:48:24.921Z,10.22
2023-04-26T05:50:52.392Z,10.25
2023-04-26T05:53:19.931Z,10.26
2023-04-26T05:55:48.324Z,10.25
2023-04-26T05:58:16.127Z,10.26
2023-04-26T06:00:46.586Z,10.25
2023-04-26T06:03:13.943Z,10.26
2023-04-26T06:06:04.271Z,10.25
2023-04-26T06:08:34.623Z,10.24
2023-04-26T06:11:03.038Z,10.26
2023-04-26T06:13:32.135Z,10.29
2023-04-26T06:15:59.775Z,10.29
2023-04-26T06:19:06.993Z,10.30
2023-04-26T06:21:35.926Z,10.34
2023-04-26T06:24:04.002Z,10.35
2023-04-26T06:26:32.539Z,10.34
2023-04-26T06:28:59.697Z,10.33
2023-04-26T06:31:26.894Z,10.32
2023-04-26T06:33:54.501Z,10.29
2023-04-26T06:36:44.066Z,10.28
2023-04-26T06:39:12.065Z,10.28
2023-04-26T06:41:41.893Z,10.30
2023-04-26T06:44:10.118Z,10.31
2023-04-26T06:46:42.052Z,10.33
2023-04-26T06:49:10.616Z,10.34
2023-04-26T06:51:37.650Z,10.35
2023-04-26T06:54:05.488Z,10.34
2023-04-26T06:56:32.641Z,10.35
2023-04-26T06:59:20.302Z,10.32
2023-04-26T07:01:47.553Z,10.24
2023-04-26T07:04:17.377Z,10.18
2023-04-26T07:06:45.562Z,10.15
2023-04-26T07:09:13.679Z,10.13
2023-04-26T07:11:40.824Z,10.13
2023-04-26T07:14:08.262Z,10.17
2023-04-26T07:16:39.656Z,10.20
2023-04-26T07:19:11.328Z,10.24
2023-04-26T07:21:39.807Z,10.26
2023-04-26T07:24:07.038Z,10.26
2023-04-26T07:26:36.463Z,10.27
2023-04-26T07:29:04.121Z,10.29
2023-04-26T07:31:35.940Z,10.34
2023-04-26T07:34:02.923Z,10.36
2023-04-26T07:36:32.996Z,10.37
2023-04-26T07:39:00.041Z,10.39
2023-04-26T07:41:27.299Z,10.42
2023-04-26T07:43:57.097Z,10.46
2023-04-26T07:46:25.632Z,10.47
2023-04-26T07:48:52.721Z,10.45
2023-04-26T07:51:21.142Z,10.39
2023-04-26T07:53:48.781Z,10.35
2023-04-26T07:56:15.775Z,10.36
2023-04-26T07:58:42.816Z,10.41
2023-04-26T08:01:11.826Z,10.43
2023-04-26T08:03:39.176Z,10.40
2023-04-26T08:06:27.976Z,10.38
2023-04-26T08:08:55.438Z,10.38
2023-04-26T08:11:26.898Z,10.38
2023-04-26T08:13:54.490Z,10.38
2023-04-26T08:16:25.247Z,10.35
2023-04-26T08:18:52.431Z,10.35
2023-04-26T08:21:19.850Z,10.34
2023-04-26T08:23:46.914Z,10.34
2023-04-26T08:26:13.791Z,10.38
2023-04-26T08:28:41.093Z,10.41
2023-04-26T08:31:08.422Z,10.40
2023-04-26T08:38:32.674Z,10.45
2023-04-26T11:25:42.503Z,11.91
2023-04-26T11:28:09.650Z,11.86
2023-04-26T11:30:36.589Z,11.88
2023-04-26T11:33:27.890Z,11.89
2023-04-26T11:35:58.145Z,11.91
2023-04-26T11:38:48.832Z,11.92
2023-04-26T11:41:15.877Z,11.84
2023-04-26T11:43:43.102Z,11.68
2023-04-26T11:46:10.505Z,11.56
2023-04-26T11:48:38.881Z,11.49
2023-04-26T11:51:07.869Z,11.43
2023-04-26T11:53:54.492Z,11.36
2023-04-26T11:56:23.209Z,11.26
2023-04-26T11:58:52.173Z,11.15
2023-04-26T12:01:30.153Z,11.05
2023-04-26T12:03:59.831Z,11.01
2023-04-26T12:07:10.530Z,11.00
2023-04-26T12:09:42.247Z,10.98
2023-04-26T12:12:09.107Z,10.93
2023-04-26T12:14:57.448Z,10.88
2023-04-26T12:17:24.728Z,10.83
2023-04-26T12:19:51.930Z,10.81
2023-04-26T12:22:21.415Z,10.78
2023-04-26T12:24:48.994Z,10.72
2023-04-26T12:27:42.669Z,10.62
2023-04-26T12:30:11.213Z,10.52
2023-04-26T12:32:41.967Z,10.36
2023-04-26T12:35:10.020Z,10.20
2023-04-26T12:37:38.072Z,10.13
2023-04-26T12:40:07.408Z,10.13
2023-04-26T12:42:34.461Z,10.13
2023-04-26T12:45:01.538Z,10.09
2023-04-26T12:47:28.735Z,10.03
2023-04-26T12:49:56.612Z,9.96
2023-04-26T12:52:24.869Z,9.90
2023-04-26T12:54:52.308Z,9.87
2023-04-26T12:57:21.229Z,9.77
2023-04-26T12:59:48.760Z,9.72
2023-04-26T13:02:36.429Z,9.71
2023-04-26T13:05:04.743Z,9.64
2023-04-26T13:07:36.895Z,9.56
2023-04-26T13:10:24.231Z,9.50
2023-04-26T13:12:53.992Z,9.49
2023-04-26T13:15:21.881Z,9.48
2023-04-26T13:17:48.902Z,9.46
2023-04-26T13:20:15.995Z,9.45
2023-04-26T13:22:43.791Z,9.43
2023-04-26T13:25:11.352Z,9.37
2023-04-26T13:27:41.337Z,9.35
2023-04-26T13:30:09.065Z,9.31
2023-04-26T13:32:36.442Z,9.24
2023-04-26T13:39:55.491Z,9.08
2023-04-26T13:56:10.784Z,8.73
2023-04-26T19:46:16.107Z,5.98
2023-04-26T20:02:31.281Z,5.97
2023-04-26T20:09:25.171Z,5.91
2023-04-26T20:42:06.340Z,5.97
2023-04-26T20:44:33.224Z,5.94
2023-04-26T20:47:00.349Z,5.96
2023-04-26T20:49:28.545Z,5.95
2023-04-26T20:51:56.298Z,5.95
2023-04-26T20:54:23.288Z,5.94
2023-04-26T20:56:50.278Z,5.89
2023-04-26T20:59:17.202Z,5.86
2023-04-26T21:01:44.223Z,5.84
2023-04-26T21:04:11.380Z,5.86
2023-04-26T21:06:38.819Z,5.89
2023-04-26T21:09:05.705Z,5.92
2023-04-26T21:11:32.762Z,5.93
2023-04-26T21:13:59.597Z,5.91
2023-04-26T21:16:26.580Z,5.90
2023-04-26T21:18:53.485Z,5.92
2023-04-26T21:21:20.520Z,5.94
2023-04-26T21:23:47.497Z,5.96
2023-04-26T21:26:17.323Z,5.97
2023-04-26T21:28:44.195Z,5.97
2023-04-26T21:31:11.766Z,5.97
